createdAt,value
2023-07-18T00:00:26.705Z,100734.78
2023-07-18T00:03:29.861Z,100741.81
2023-07-18T00:06:31.507Z,100749.03
2023-07-18T00:09:33.427Z,100754.22
2023-07-18T00:12:36.108Z,100751.78
2023-07-18T00:15:37.880Z,100749.75
2023-07-18T00:18:39.553Z,100750.34
2023-07-18T00:21:42.061Z,100747.34
2023-07-18T00:24:43.746Z,100754.41
2023-07-18T00:27:45.680Z,100755.03
2023-07-18T00:30:48.472Z,100751.13
2023-07-18T00:33:50.123Z,100755.28
2023-07-18T00:36:56.360Z,100764.38
2023-07-18T00:39:58.581Z,100756.94
2023-07-18T00:43:00.221Z,100759.44
2023-07-18T00:46:04.736Z,100751.97
2023-07-18T00:49:06.762Z,100751.16
2023-07-18T00:52:08.644Z,100749.91
2023-07-18T00:55:11.490Z,100746.59
2023-07-18T00:58:13.769Z,100750.34
2023-07-18T01:01:15.702Z,100749.06
2023-07-18T01:04:19.597Z,100746.22
2023-07-18T01:07:21.583Z,100758.59
2023-07-18T01:10:25.858Z,100753.63
2023-07-18T01:13:27.749Z,100741.44
2023-07-18T01:16:29.386Z,100734.59
2023-07-18T01:19:31.890Z,100735.44
2023-07-18T01:22:33.556Z,100733.78
2023-07-18T01:25:36.398Z,100743.47
2023-07-18T01:28:38.302Z,100738.06
2023-07-18T01:31:40.016Z,100734.94
2023-07-18T01:34:41.917Z,100727.50
2023-07-18T01:37:47.625Z,100718.81
2023-07-18T01:40:49.402Z,100733.13
2023-07-18T01:43:51.054Z,100735.84
2023-07-18T01:46:52.736Z,100736.28
2023-07-18T01:49:54.368Z,100744.94
2023-07-18T01:52:56.293Z,100752.19
2023-07-18T01:55:59.611Z,100754.69
2023-07-18T01:59:01.217Z,100755.09
2023-07-18T02:02:07.553Z,100751.38
2023-07-18T02:05:09.535Z,100752.81
2023-07-18T02:08:11.185Z,100755.47
2023-07-18T02:11:12.848Z,100763.34
2023-07-18T02:14:14.509Z,100758.59
2023-07-18T02:17:16.212Z,100766.88
2023-07-18T02:20:18.123Z,100771.81
2023-07-18T02:23:19.822Z,100775.34
2023-07-18T02:26:21.451Z,100776.97
2023-07-18T02:29:23.179Z,100775.97
2023-07-18T02:32:24.797Z,100776.41
2023-07-18T02:35:26.457Z,100783.81
2023-07-18T02:38:28.074Z,100791.50
2023-07-18T02:41:29.711Z,100784.66
2023-07-18T02:44:31.308Z,100789.66
2023-07-18T02:47:32.966Z,100804.53
2023-07-18T02:50:35.801Z,100796.47
2023-07-18T02:53:37.637Z,100796.47
2023-07-18T02:56:39.277Z,100803.91
2023-07-18T02:59:40.935Z,100805.16
2023-07-18T03:02:43.291Z,100808.66
2023-07-18T03:05:44.998Z,100817.59
2023-07-18T03:08:46.632Z,100822.53
2023-07-18T03:11:48.629Z,100817.34
2023-07-18T03:14:50.608Z,100815.91
2023-07-18T03:17:52.300Z,100821.91
2023-07-18T03:20:53.979Z,100819.44
2023-07-18T03:23:56.028Z,100824.19
2023-07-18T03:26:57.711Z,100822.72
2023-07-18T03:29:59.337Z,100826.06
2023-07-18T03:33:01.123Z,100823.75
2023-07-18T03:36:03.530Z,100816.06
2023-07-18T03:39:05.330Z,100823.94
2023-07-18T03:42:07.500Z,100826.66
2023-07-18T03:45:11.596Z,100823.75
2023-07-18T03:48:13.491Z,100835.75
2023-07-18T03:51:15.316Z,100834.66
2023-07-18T03:54:18.146Z,100829.28
2023-07-18T03:57:20.116Z,100834.25
2023-07-18T04:00:22.016Z,100830.13
2023-07-18T04:03:23.653Z,100831.53
2023-07-18T04:06:25.377Z,100837.09
2023-07-18T04:09:27.004Z,100841.22
2023-07-18T04:12:28.587Z,100847.00
2023-07-18T04:15:30.229Z,100853.44
2023-07-18T04:18:31.950Z,100843.47
2023-07-18T04:21:34.596Z,100845.91
2023-07-18T04:24:36.423Z,100852.72
2023-07-18T04:27:38.022Z,100857.00
2023-07-18T04:30:39.851Z,100850.75
2023-07-18T04:33:41.739Z,100852.38
2023-07-18T04:36:44.042Z,100850.63
2023-07-18T04:39:45.726Z,100853.78
2023-07-18T04:42:47.359Z,100852.66
2023-07-18T04:45:49.574Z,100851.06
2023-07-18T04:48:51.202Z,100865.03
2023-07-18T04:51:53.267Z,100870.41
2023-07-18T04:54:55.322Z,100869.72
2023-07-18T04:57:56.897Z,100868.50
2023-07-18T05:01:00.634Z,100870.09
2023-07-18T05:04:02.517Z,100880.47
2023-07-18T05:07:05.053Z,100876.53
2023-07-18T05:10:07.535Z,100874.00
2023-07-18T05:13:09.691Z,100874.00
2023-07-18T05:16:11.359Z,100890.28
2023-07-18T05:19:13.136Z,100878.88
2023-07-18T05:22:14.741Z,100881.34
2023-07-18T05:25:18.285Z,100888.34
2023-07-18T05:28:19.888Z,100884.69
2023-07-18T05:31:22.330Z,100894.25
2023-07-18T05:34:24.443Z,100898.72
2023-07-18T05:37:27.120Z,100902.97
2023-07-18T05:40:28.735Z,100907.13
2023-07-18T05:43:30.324Z,100905.78
2023-07-18T05:46:32.106Z,100907.94
2023-07-18T05:49:33.848Z,100904.38
2023-07-18T05:52:35.597Z,100903.09
2023-07-18T05:55:37.915Z,100910.75
2023-07-18T05:58:39.524Z,100915.91
2023-07-18T06:01:41.209Z,100917.38
2023-07-18T06:04:42.860Z,100917.25
2023-07-18T06:07:44.499Z,100925.41
2023-07-18T06:10:46.124Z,100921.28
2023-07-18T06:13:47.804Z,100924.59
2023-07-18T06:16:49.576Z,100922.69
2023-07-18T06:19:51.367Z,100924.78
2023-07-18T06:22:53.733Z,100931.34
2023-07-18T06:25:55.428Z,100925.94
2023-07-18T06:28:57.044Z,100916.38
2023-07-18T06:31:59.203Z,100927.25
2023-07-18T06:35:13.060Z,100928.88
2023-07-18T06:38:23.178Z,100938.66
2023-07-18T06:41:24.839Z,100934.75
2023-07-18T06:44:26.836Z,100939.34
2023-07-18T06:47:28.662Z,100934.53
2023-07-18T06:50:30.868Z,100945.84
2023-07-18T06:53:32.506Z,100929.25
2023-07-18T06:56:34.112Z,100942.59
2023-07-18T06:59:36.315Z,100945.84
2023-07-18T07:02:38.014Z,100937.13
2023-07-18T07:05:42.531Z,100941.47
2023-07-18T07:08:44.210Z,100945.78
2023-07-18T07:11:45.829Z,100951.78
2023-07-18T07:14:47.535Z,100951.84
2023-07-18T07:17:49.175Z,100958.75
2023-07-18T07:20:52.250Z,100953.44
2023-07-18T07:23:56.124Z,100967.19
2023-07-18T07:26:59.547Z,100963.44
2023-07-18T07:30:01.185Z,100969.84
2023-07-18T07:33:07.246Z,100969.97
2023-07-18T07:36:08.994Z,100978.28
2023-07-18T07:39:10.661Z,100970.38
2023-07-18T07:42:12.252Z,100964.69
2023-07-18T07:45:15.565Z,100977.56
2023-07-18T07:48:17.227Z,100968.03
2023-07-18T07:51:19.431Z,100978.69
2023-07-18T07:54:21.277Z,100964.47
2023-07-18T07:57:23.673Z,100965.34
2023-07-18T08:00:25.493Z,100964.81
2023-07-18T08:03:27.154Z,100967.44
2023-07-18T08:06:28.748Z,100970.38
2023-07-18T08:09:30.532Z,100971.19
2023-07-18T08:12:32.143Z,100959.75
2023-07-18T08:15:33.770Z,100966.59
2023-07-18T08:18:35.411Z,100970.00
2023-07-18T08:21:37.005Z,100963.91
2023-07-18T08:24:40.379Z,100961.16
2023-07-18T08:27:42.016Z,100957.63
2023-07-18T08:30:44.667Z,100962.59
2023-07-18T08:33:46.840Z,100965.28
2023-07-18T08:36:48.541Z,100956.03
2023-07-18T08:39:50.194Z,100964.16
2023-07-18T08:42:52.647Z,100954.41
2023-07-18T08:45:55.303Z,100959.22
2023-07-18T08:48:57.089Z,100952.97
2023-07-18T08:51:58.938Z,100953.47
2023-07-18T08:55:01.141Z,100951.72
2023-07-18T08:58:03.471Z,100952.09
2023-07-18T09:01:06.604Z,100958.56
2023-07-18T09:04:08.276Z,100950.94
2023-07-18T09:07:11.939Z,100954.06
2023-07-18T09:10:21.975Z,100948.09
2023-07-18T09:13:26.346Z,100942.44
2023-07-18T09:16:27.982Z,100932.84
2023-07-18T09:19:39.901Z,100939.78
2023-07-18T09:22:42.587Z,100935.50
2023-07-18T09:25:44.846Z,100942.78
2023-07-18T09:28:47.254Z,100926.66
2023-07-18T09:31:51.033Z,100935.88
2023-07-18T09:34:53.965Z,100935.75
2023-07-18T09:37:56.606Z,100934.44
2023-07-18T09:40:58.384Z,100930.72
2023-07-18T09:44:26.916Z,100919.75
2023-07-18T09:47:24.013Z,100911.66
2023-07-18T09:50:27.780Z,100919.81
2023-07-18T09:53:31.329Z,100922.88
2023-07-18T09:56:39.626Z,100916.31
2023-07-18T09:59:41.544Z,100923.41
2023-07-18T10:02:44.500Z,100921.91
2023-07-18T10:05:46.818Z,100907.34
2023-07-18T10:08:48.819Z,100910.41
2023-07-18T10:11:59.614Z,100915.94
2023-07-18T10:15:01.924Z,100919.19
2023-07-18T10:18:19.681Z,100901.69
2023-07-18T10:21:33.454Z,100909.28
2023-07-18T10:24:35.225Z,100900.50
2023-07-18T10:27:44.697Z,100902.25
2023-07-18T10:30:47.593Z,100897.16
2023-07-18T10:34:19.455Z,100900.56
2023-07-18T10:37:27.340Z,100876.31
2023-07-18T10:40:34.426Z,100882.19
2023-07-18T10:43:48.044Z,100880.41
2023-07-18T10:46:49.715Z,100882.72
2023-07-18T10:49:51.373Z,100875.88
2023-07-18T10:52:53.039Z,100864.28
2023-07-18T10:55:57.480Z,100857.63
2023-07-18T10:58:59.694Z,100861.06
2023-07-18T11:02:01.937Z,100851.91
2023-07-18T11:05:12.745Z,100855.22
2023-07-18T11:08:26.531Z,100846.78
2023-07-18T11:11:28.345Z,100845.34
2023-07-18T11:14:42.318Z,100841.06
2023-07-18T11:17:44.865Z,100835.03
2023-07-18T11:20:46.635Z,100829.47
2023-07-18T11:23:48.695Z,100829.50
2023-07-18T11:27:19.139Z,100826.06
2023-07-18T11:30:23.084Z,100821.41
2023-07-18T11:33:37.163Z,100807.88
2023-07-18T11:36:41.607Z,100809.13
2023-07-18T11:39:47.871Z,100816.25
2023-07-18T11:42:51.300Z,100813.69
2023-07-18T11:45:57.117Z,100796.22
2023-07-18T11:48:59.017Z,100800.63
2023-07-18T11:52:03.398Z,100799.47
2023-07-18T11:55:05.539Z,100792.88
2023-07-18T11:58:09.296Z,100785.66
2023-07-18T12:01:11.072Z,100784.31
2023-07-18T12:04:16.213Z,100779.75
2023-07-18T12:07:19.398Z,100783.50
2023-07-18T12:10:24.764Z,100774.19
2023-07-18T12:13:27.670Z,100783.19
2023-07-18T12:16:29.793Z,100773.59
2023-07-18T12:19:31.486Z,100775.97
2023-07-18T12:22:33.520Z,100762.72
2023-07-18T12:25:35.155Z,100760.47
2023-07-18T12:28:36.800Z,100751.69
2023-07-18T12:31:38.482Z,100754.31
2023-07-18T12:34:41.242Z,100756.81
2023-07-18T12:37:42.957Z,100757.38
2023-07-18T12:40:44.723Z,100749.38
2023-07-18T12:43:46.385Z,100736.88
2023-07-18T12:46:48.547Z,100738.22
2023-07-18T12:52:54.899Z,100731.88
2023-07-18T12:55:56.912Z,100728.16
2023-07-18T12:58:59.165Z,100725.25
2023-07-18T13:02:01.430Z,100721.16
2023-07-18T13:05:04.032Z,100717.59
2023-07-18T13:08:06.473Z,100711.03
2023-07-18T13:11:08.380Z,100706.50
2023-07-18T13:14:10.212Z,100712.22
2023-07-18T13:17:11.865Z,100709.31
2023-07-18T13:20:13.565Z,100708.81
2023-07-18T13:23:15.371Z,100698.09
2023-07-18T13:26:20.378Z,100701.34
2023-07-18T13:29:22.313Z,100691.38
2023-07-18T13:32:24.007Z,100689.13
2023-07-18T13:35:25.681Z,100688.81
2023-07-18T13:38:27.349Z,100681.75
2023-07-18T13:41:28.956Z,100681.81
2023-07-18T13:44:30.604Z,100678.41
2023-07-18T13:47:32.286Z,100664.31
2023-07-18T13:50:34.006Z,100664.38
2023-07-18T13:53:35.668Z,100669.66
2023-07-18T13:56:37.375Z,100662.78
2023-07-18T13:59:39.012Z,100654.88
2023-07-18T14:02:40.833Z,100660.59
2023-07-18T14:05:42.603Z,100668.53
2023-07-18T14:08:44.941Z,100662.81
2023-07-18T14:11:48.180Z,100653.81
2023-07-18T14:14:49.855Z,100647.97
2023-07-18T14:17:53.214Z,100648.56
2023-07-18T14:20:54.995Z,100646.06
2023-07-18T14:23:57.352Z,100637.09
2023-07-18T14:26:58.988Z,100625.44
2023-07-18T14:30:00.646Z,100622.72
2023-07-18T14:33:05.272Z,100626.75
2023-07-18T14:36:08.809Z,100632.88
2023-07-18T14:39:10.472Z,100624.47
2023-07-18T14:42:12.130Z,100620.91
2023-07-18T14:45:13.853Z,100628.03
2023-07-18T14:48:15.502Z,100614.66
2023-07-18T14:51:17.246Z,100619.72
2023-07-18T14:54:18.902Z,100606.28
2023-07-18T14:57:20.979Z,100605.91
2023-07-18T15:00:22.661Z,100597.16
2023-07-18T15:03:24.430Z,100599.16
2023-07-18T15:06:26.174Z,100600.03
2023-07-18T15:09:27.809Z,100602.91
2023-07-18T15:12:30.038Z,100599.88
2023-07-18T15:15:32.157Z,100596.78
2023-07-18T15:18:33.815Z,100597.50
2023-07-18T15:21:35.782Z,100585.03
2023-07-18T15:24:37.463Z,100573.66
2023-07-18T15:27:40.871Z,100578.50
2023-07-18T15:30:42.636Z,100573.56
2023-07-18T15:33:44.445Z,100575.28
2023-07-18T15:36:49.056Z,100560.09
2023-07-18T15:39:50.722Z,100554.88
2023-07-18T15:42:53.032Z,100552.53
2023-07-18T15:45:55.942Z,100544.09
2023-07-18T15:48:58.044Z,100545.53
2023-07-18T15:51:59.668Z,100541.59
2023-07-18T15:55:01.486Z,100543.41
2023-07-18T15:58:03.122Z,100530.66
2023-07-18T16:01:05.057Z,100526.47
2023-07-18T16:04:07.777Z,100515.91
2023-07-18T16:07:09.512Z,100502.66
2023-07-18T16:10:11.392Z,100504.50
2023-07-18T16:13:13.044Z,100505.88
2023-07-18T16:16:15.595Z,100495.13
2023-07-18T16:19:17.892Z,100491.59
2023-07-18T16:22:19.702Z,100482.25
2023-07-18T16:25:21.656Z,100484.31
2023-07-18T16:28:23.377Z,100487.25
2023-07-18T16:31:27.128Z,100496.97
2023-07-18T16:34:28.925Z,100502.28
2023-07-18T16:37:30.626Z,100496.59
2023-07-18T16:40:32.283Z,100512.09
2023-07-18T16:43:35.385Z,100517.94
2023-07-18T16:46:37.173Z,100517.50
2023-07-18T16:49:38.860Z,100527.25
2023-07-18T16:52:41.356Z,100512.94
2023-07-18T16:55:43.002Z,100516.94
2023-07-18T16:58:45.030Z,100516.88
2023-07-18T17:01:46.871Z,100535.09
2023-07-18T17:04:48.570Z,100538.47
2023-07-18T17:07:50.239Z,100550.53
2023-07-18T17:10:51.935Z,100538.47
2023-07-18T17:13:53.575Z,100543.09
2023-07-18T17:16:55.315Z,100545.00
2023-07-18T17:20:06.595Z,100547.16
2023-07-18T17:23:10.288Z,100540.53
2023-07-18T17:26:12.148Z,100556.84
2023-07-18T17:29:13.769Z,100560.00
2023-07-18T17:32:15.476Z,100570.50
2023-07-18T17:35:17.520Z,100558.63
2023-07-18T17:38:19.217Z,100566.66
2023-07-18T17:41:21.290Z,100563.25
2023-07-18T17:44:23.090Z,100543.25
2023-07-18T17:47:24.797Z,100536.81
2023-07-18T17:50:27.743Z,100529.41
2023-07-18T17:53:29.409Z,100542.38
2023-07-18T17:56:31.377Z,100535.13
2023-07-18T17:59:33.829Z,100528.00
2023-07-18T18:02:36.253Z,100522.47
2023-07-18T18:05:48.108Z,100536.13
2023-07-18T18:08:50.814Z,100528.72
2023-07-18T18:11:54.035Z,100542.03
2023-07-18T18:14:55.663Z,100537.25
2023-07-18T18:17:57.379Z,100530.47
2023-07-18T18:21:01.070Z,100537.56
2023-07-18T18:24:02.680Z,100540.22
2023-07-18T18:27:04.730Z,100545.13
2023-07-18T18:30:07.022Z,100534.13
2023-07-18T18:33:08.736Z,100538.66
2023-07-18T18:36:10.589Z,100517.38
2023-07-18T18:39:13.906Z,100504.63
2023-07-18T18:42:15.568Z,100499.00
2023-07-18T18:45:17.306Z,100487.09
2023-07-18T18:48:19.651Z,100480.44
2023-07-18T18:51:21.493Z,100501.47
2023-07-18T18:54:23.689Z,100530.63
2023-07-18T18:57:25.401Z,100525.94
2023-07-18T19:00:27.272Z,100488.22
2023-07-18T19:03:28.999Z,100478.19
2023-07-18T19:06:30.706Z,100471.88
2023-07-18T19:09:32.402Z,100483.75
2023-07-18T19:12:34.062Z,100474.69
2023-07-18T19:15:35.697Z,100475.06
2023-07-18T19:18:37.618Z,100467.50
2023-07-18T19:21:39.263Z,100471.97
2023-07-18T19:24:42.050Z,100480.41
2023-07-18T19:27:43.630Z,100479.41
2023-07-18T19:30:45.268Z,100463.63
2023-07-18T19:33:46.885Z,100461.75
2023-07-18T19:36:48.686Z,100459.13
2023-07-18T19:39:50.648Z,100456.41
2023-07-18T19:42:52.460Z,100450.50
2023-07-18T19:45:54.105Z,100453.94
2023-07-18T19:48:55.742Z,100451.97
2023-07-18T19:51:57.901Z,100455.19
2023-07-18T19:54:59.601Z,100447.88
2023-07-18T19:58:01.243Z,100450.75
2023-07-18T20:01:02.937Z,100457.59
2023-07-18T20:04:04.910Z,100464.28
2023-07-18T20:07:06.587Z,100450.31
2023-07-18T20:10:09.318Z,100463.91
2023-07-18T20:13:10.939Z,100460.38
2023-07-18T20:16:12.877Z,100447.34
2023-07-18T20:19:15.117Z,100441.44
2023-07-18T20:22:18.761Z,100437.47
2023-07-18T20:25:20.344Z,100429.63
2023-07-18T20:28:22.105Z,100395.78
2023-07-18T20:31:24.191Z,100385.44
2023-07-18T20:34:25.970Z,100385.00
2023-07-18T20:37:27.697Z,100394.75
2023-07-18T20:40:30.190Z,100389.50
2023-07-18T20:43:32.048Z,100384.00
2023-07-18T20:46:33.727Z,100390.31
2023-07-18T20:49:35.581Z,100379.16
2023-07-18T20:52:37.179Z,100374.69
2023-07-18T20:55:38.841Z,100359.19
2023-07-18T20:58:40.499Z,100360.38
2023-07-18T21:01:42.158Z,100370.72
2023-07-18T21:04:43.904Z,100376.59
2023-07-18T21:07:45.532Z,100367.66
2023-07-18T21:10:47.201Z,100359.38
2023-07-18T21:13:48.868Z,100357.72
2023-07-18T21:16:50.480Z,100354.66
2023-07-18T21:19:52.156Z,100367.72
2023-07-18T21:22:53.829Z,100374.06
2023-07-18T21:25:55.515Z,100377.97
2023-07-18T21:29:04.576Z,100376.31
2023-07-18T21:32:07.595Z,100376.06
2023-07-18T21:35:09.860Z,100367.38
2023-07-18T21:38:11.682Z,100379.56
2023-07-18T21:41:13.447Z,100370.03
2023-07-18T21:44:15.587Z,100380.00
2023-07-18T21:47:17.234Z,100365.78
2023-07-18T21:50:18.896Z,100347.44
2023-07-18T21:53:20.523Z,100333.84
2023-07-18T21:56:22.159Z,100339.66
2023-07-18T21:59:23.978Z,100326.53
2023-07-18T22:02:33.189Z,100332.75
2023-07-18T22:05:35.257Z,100322.97
2023-07-18T22:08:36.845Z,100309.38
2023-07-18T22:11:38.493Z,100312.44
2023-07-18T22:14:40.182Z,100311.03
2023-07-18T22:17:41.885Z,100304.69
2023-07-18T22:20:43.747Z,100304.47
2023-07-18T22:23:45.422Z,100302.69
2023-07-18T22:26:47.035Z,100297.78
2023-07-18T22:29:48.753Z,100281.41
2023-07-18T22:32:50.432Z,100281.28
2023-07-18T22:35:52.072Z,100268.47
2023-07-18T22:38:53.667Z,100264.06
2023-07-18T22:41:55.277Z,100263.84
2023-07-18T22:44:56.933Z,100269.28
2023-07-18T22:47:58.677Z,100266.22
2023-07-18T22:51:00.366Z,100257.63
2023-07-18T22:54:03.645Z,100273.19
2023-07-18T22:57:06.743Z,100273.88
2023-07-18T23:00:09.884Z,100266.03
2023-07-18T23:03:12.705Z,100258.31
2023-07-18T23:06:14.453Z,100247.63
2023-07-18T23:09:16.320Z,100234.41
2023-07-18T23:12:18.314Z,100245.25
2023-07-18T23:15:20.261Z,100242.63
2023-07-18T23:18:21.992Z,100252.59
2023-07-18T23:21:24.214Z,100254.38
2023-07-18T23:24:25.846Z,100253.31
2023-07-18T23:27:27.436Z,100247.56
2023-07-18T23:30:29.270Z,100236.97
2023-07-18T23:33:30.941Z,100242.63
2023-07-18T23:36:32.628Z,100236.69
2023-07-18T23:39:34.610Z,100227.03
2023-07-18T23:42:37.073Z,100231.53
2023-07-18T23:45:39.387Z,100230.31
2023-07-18T23:48:41.852Z,100239.28
2023-07-18T23:51:43.507Z,100224.47
2023-07-18T23:54:45.140Z,100228.66
2023-07-18T23:57:46.829Z,100227.59
